sensor_id;sensor_type;location;lat;lon;timestamp;pressure;altitude;pressure_sealevel;temperature;humidity
74343;BME280;62767;50.300;8.070;2024-03-02T00:01:56;98683.25;;;19.65;39.96
74343;BME280;62767;50.300;8.070;2024-03-02T00:04:22;98672.53;;;19.67;40.14
74343;BME280;62767;50.300;8.070;2024-03-02T00:06:47;98676.66;;;19.69;39.98
74343;BME280;62767;50.300;8.070;2024-03-02T00:09:14;98679.91;;;19.71;40.06
74343;BME280;62767;50.300;8.070;2024-03-02T00:11:40;98684.66;;;19.76;39.89
74343;BME280;62767;50.300;8.070;2024-03-02T00:14:05;98687.97;;;19.78;39.98
74343;BME280;62767;50.300;8.070;2024-03-02T00:16:31;98679.88;;;19.80;40.08
74343;BME280;62767;50.300;8.070;2024-03-02T00:19:05;98682.78;;;19.85;39.96
74343;BME280;62767;50.300;8.070;2024-03-02T00:21:31;98683.09;;;19.90;40.36
74343;BME280;62767;50.300;8.070;2024-03-02T00:23:58;98685.59;;;19.83;40.09
74343;BME280;62767;50.300;8.070;2024-03-02T00:26:23;98683.44;;;19.87;39.95
74343;BME280;62767;50.300;8.070;2024-03-02T00:28:49;98684.44;;;19.86;39.81
74343;BME280;62767;50.300;8.070;2024-03-02T00:31:19;98692.16;;;19.87;39.87
74343;BME280;62767;50.300;8.070;2024-03-02T00:33:48;98687.25;;;19.84;39.49
74343;BME280;62767;50.300;8.070;2024-03-02T00:36:26;98691.72;;;19.84;39.56
74343;BME280;62767;50.300;8.070;2024-03-02T00:38:54;98694.19;;;19.85;39.55
74343;BME280;62767;50.300;8.070;2024-03-02T00:41:32;98693.00;;;19.88;39.37
74343;BME280;62767;50.300;8.070;2024-03-02T00:44:07;98690.34;;;19.88;39.24
74343;BME280;62767;50.300;8.070;2024-03-02T00:46:35;98692.16;;;19.87;39.20
74343;BME280;62767;50.300;8.070;2024-03-02T00:49:23;98683.78;;;19.84;39.27
74343;BME280;62767;50.300;8.070;2024-03-02T00:51:49;98687.78;;;19.80;39.38
74343;BME280;62767;50.300;8.070;2024-03-02T00:54:19;98684.50;;;19.78;39.20
74343;BME280;62767;50.300;8.070;2024-03-02T00:56:46;98689.94;;;19.76;39.17
74343;BME280;62767;50.300;8.070;2024-03-02T00:59:12;98682.38;;;19.73;39.17
74343;BME280;62767;50.300;8.070;2024-03-02T01:01:38;98679.28;;;19.69;39.23
74343;BME280;62767;50.300;8.070;2024-03-02T01:04:03;98678.97;;;19.64;39.34
74343;BME280;62767;50.300;8.070;2024-03-02T01:06:30;98679.34;;;19.61;39.21
74343;BME280;62767;50.300;8.070;2024-03-02T01:08:55;98674.94;;;19.54;39.50
74343;BME280;62767;50.300;8.070;2024-03-02T01:11:21;98677.78;;;19.44;39.58
74343;BME280;62767;50.300;8.070;2024-03-02T01:13:50;98678.19;;;19.33;39.67
74343;BME280;62767;50.300;8.070;2024-03-02T01:16:16;98673.59;;;19.27;39.73
74343;BME280;62767;50.300;8.070;2024-03-02T01:18:42;98668.31;;;19.27;39.71
74343;BME280;62767;50.300;8.070;2024-03-02T01:21:07;98669.97;;;19.28;39.79
74343;BME280;62767;50.300;8.070;2024-03-02T01:23:33;98665.84;;;19.25;39.79
74343;BME280;62767;50.300;8.070;2024-03-02T01:25:59;98655.78;;;19.29;39.67
74343;BME280;62767;50.300;8.070;2024-03-02T01:28:24;98662.88;;;19.28;39.64
74343;BME280;62767;50.300;8.070;2024-03-02T01:30:50;98660.41;;;19.27;39.74
74343;BME280;62767;50.300;8.070;2024-03-02T01:33:17;98656.13;;;19.26;39.71
74343;BME280;62767;50.300;8.070;2024-03-02T01:35:43;98654.03;;;19.21;39.80
74343;BME280;62767;50.300;8.070;2024-03-02T01:38:09;98640.84;;;19.21;39.77
74343;BME280;62767;50.300;8.070;2024-03-02T01:40:35;98648.91;;;19.20;39.79
74343;BME280;62767;50.300;8.070;2024-03-02T01:43:00;98648.09;;;19.19;39.71
74343;BME280;62767;50.300;8.070;2024-03-02T01:45:27;98653.84;;;19.23;39.69
74343;BME280;62767;50.300;8.070;2024-03-02T01:47:53;98642.13;;;19.25;39.46
74343;BME280;62767;50.300;8.070;2024-03-02T01:50:29;98640.97;;;19.28;39.62
74343;BME280;62767;50.300;8.070;2024-03-02T01:52:56;98634.31;;;19.32;39.43
74343;BME280;62767;50.300;8.070;2024-03-02T01:55:22;98628.50;;;19.37;39.44
74343;BME280;62767;50.300;8.070;2024-03-02T01:57:49;98630.00;;;19.39;39.42
74343;BME280;62767;50.300;8.070;2024-03-02T02:00:19;98640.19;;;19.42;39.29
74343;BME280;62767;50.300;8.070;2024-03-02T02:02:45;98628.63;;;19.43;39.12
74343;BME280;62767;50.300;8.070;2024-03-02T02:05:11;98622.38;;;19.44;39.30
74343;BME280;62767;50.300;8.070;2024-03-02T02:07:36;98628.63;;;19.43;39.27
74343;BME280;62767;50.300;8.070;2024-03-02T02:10:02;98633.09;;;19.43;39.24
74343;BME280;62767;50.300;8.070;2024-03-02T02:12:27;98632.09;;;19.44;39.10
74343;BME280;62767;50.300;8.070;2024-03-02T02:14:53;98622.91;;;19.40;39.17
74343;BME280;62767;50.300;8.070;2024-03-02T02:17:18;98621.09;;;19.40;39.21
74343;BME280;62767;50.300;8.070;2024-03-02T02:19:44;98609.72;;;19.40;39.19
74343;BME280;62767;50.300;8.070;2024-03-02T02:22:10;98622.25;;;19.38;39.11
74343;BME280;62767;50.300;8.070;2024-03-02T02:24:39;98626.88;;;19.35;39.19
74343;BME280;62767;50.300;8.070;2024-03-02T02:27:05;98620.47;;;19.30;39.23
74343;BME280;62767;50.300;8.070;2024-03-02T02:29:30;98616.38;;;19.27;39.44
74343;BME280;62767;50.300;8.070;2024-03-02T02:31:56;98615.91;;;19.24;39.27
74343;BME280;62767;50.300;8.070;2024-03-02T02:34:21;98611.97;;;19.20;39.40
74343;BME280;62767;50.300;8.070;2024-03-02T02:36:47;98612.34;;;19.17;39.40
74343;BME280;62767;50.300;8.070;2024-03-02T02:39:15;98614.97;;;19.17;39.49
74343;BME280;62767;50.300;8.070;2024-03-02T02:41:42;98609.22;;;19.13;39.39
74343;BME280;62767;50.300;8.070;2024-03-02T02:44:07;98605.94;;;19.11;39.40
74343;BME280;62767;50.300;8.070;2024-03-02T02:46:33;98597.91;;;19.05;39.67
74343;BME280;62767;50.300;8.070;2024-03-02T02:48:58;98597.25;;;19.03;39.46
74343;BME280;62767;50.300;8.070;2024-03-02T02:51:24;98594.63;;;19.03;39.61
74343;BME280;62767;50.300;8.070;2024-03-02T02:53:51;98591.16;;;19.02;39.70
74343;BME280;62767;50.300;8.070;2024-03-02T02:56:16;98583.25;;;19.02;39.58
74343;BME280;62767;50.300;8.070;2024-03-02T02:58:42;98590.81;;;19.05;39.52
74343;BME280;62767;50.300;8.070;2024-03-02T03:01:08;98579.28;;;19.06;39.64
74343;BME280;62767;50.300;8.070;2024-03-02T03:03:33;98582.56;;;19.08;39.58
74343;BME280;62767;50.300;8.070;2024-03-02T03:05:59;98578.94;;;19.09;39.54
74343;BME280;62767;50.300;8.070;2024-03-02T03:08:24;98577.94;;;19.10;39.54
74343;BME280;62767;50.300;8.070;2024-03-02T03:10:50;98582.03;;;19.13;39.38
74343;BME280;62767;50.300;8.070;2024-03-02T03:13:15;98585.31;;;19.15;39.37
74343;BME280;62767;50.300;8.070;2024-03-02T03:15:41;98588.59;;;19.17;39.43
74343;BME280;62767;50.300;8.070;2024-03-02T03:18:06;98598.13;;;19.18;39.34
74343;BME280;62767;50.300;8.070;2024-03-02T03:20:36;98596.16;;;19.20;39.21
74343;BME280;62767;50.300;8.070;2024-03-02T03:23:01;98588.91;;;19.22;39.34
74343;BME280;62767;50.300;8.070;2024-03-02T03:25:27;98588.72;;;19.23;39.30
74343;BME280;62767;50.300;8.070;2024-03-02T03:27:52;98591.38;;;19.23;39.25
74343;BME280;62767;50.300;8.070;2024-03-02T03:30:18;98586.88;;;19.24;39.22
74343;BME280;62767;50.300;8.070;2024-03-02T03:32:44;98583.25;;;19.25;39.20
74343;BME280;62767;50.300;8.070;2024-03-02T03:35:09;98585.91;;;19.25;39.22
74343;BME280;62767;50.300;8.070;2024-03-02T03:37:35;98585.91;;;19.25;39.12
74343;BME280;62767;50.300;8.070;2024-03-02T03:40:02;98581.59;;;19.24;39.18
74343;BME280;62767;50.300;8.070;2024-03-02T03:42:28;98581.59;;;19.24;39.06
74343;BME280;62767;50.300;8.070;2024-03-02T03:44:53;98576.88;;;19.19;39.17
74343;BME280;62767;50.300;8.070;2024-03-02T03:47:19;98566.84;;;19.15;39.21
74343;BME280;62767;50.300;8.070;2024-03-02T03:49:45;98574.94;;;19.13;39.29
74343;BME280;62767;50.300;8.070;2024-03-02T03:52:11;98572.66;;;19.10;39.36
74343;BME280;62767;50.300;8.070;2024-03-02T03:54:36;98570.19;;;19.09;39.37
74343;BME280;62767;50.300;8.070;2024-03-02T03:57:03;98573.19;;;19.06;39.20
74343;BME280;62767;50.300;8.070;2024-03-02T03:59:29;98577.66;;;19.05;39.43
74343;BME280;62767;50.300;8.070;2024-03-02T04:01:54;98572.69;;;19.02;39.46
74343;BME280;62767;50.300;8.070;2024-03-02T04:04:20;98573.69;;;19.01;39.39
74343;BME280;62767;50.300;8.070;2024-03-02T04:06:45;98580.78;;;19.01;39.49
74343;BME280;62767;50.300;8.070;2024-03-02T04:09:11;98584.59;;;18.98;39.39
74343;BME280;62767;50.300;8.070;2024-03-02T04:11:36;98580.47;;;18.96;39.41
74343;BME280;62767;50.300;8.070;2024-03-02T04:14:01;98580.69;;;18.94;39.52
74343;BME280;62767;50.300;8.070;2024-03-02T04:16:27;98585.28;;;18.92;39.49
74343;BME280;62767;50.300;8.070;2024-03-02T04:18:54;98593.88;;;18.94;39.72
74343;BME280;62767;50.300;8.070;2024-03-02T04:21:19;98587.94;;;18.92;39.33
74343;BME280;62767;50.300;8.070;2024-03-02T04:23:45;98578.03;;;18.94;39.49
74343;BME280;62767;50.300;8.070;2024-03-02T04:26:10;98584.94;;;18.95;39.48
74343;BME280;62767;50.300;8.070;2024-03-02T04:28:36;98586.59;;;18.96;39.50
74343;BME280;62767;50.300;8.070;2024-03-02T04:31:01;98581.31;;;18.96;39.50
74343;BME280;62767;50.300;8.070;2024-03-02T04:33:27;98584.59;;;18.98;39.40
74343;BME280;62767;50.300;8.070;2024-03-02T04:35:52;98588.69;;;19.01;39.42
74343;BME280;62767;50.300;8.070;2024-03-02T04:38:18;98585.88;;;19.02;39.64
74343;BME280;62767;50.300;8.070;2024-03-02T04:40:43;98589.19;;;19.04;39.31
74343;BME280;62767;50.300;8.070;2024-03-02T04:43:09;98596.09;;;19.05;39.19
74343;BME280;62767;50.300;8.070;2024-03-02T04:45:38;98594.91;;;19.08;39.32
74343;BME280;62767;50.300;8.070;2024-03-02T04:48:03;98599.19;;;19.09;39.33
74343;BME280;62767;50.300;8.070;2024-03-02T04:50:29;98598.22;;;19.10;39.31
74343;BME280;62767;50.300;8.070;2024-03-02T04:52:55;98604.13;;;19.12;39.27
74343;BME280;62767;50.300;8.070;2024-03-02T04:55:20;98601.66;;;19.10;39.23
74343;BME280;62767;50.300;8.070;2024-03-02T04:57:54;98617.50;;;19.10;39.33
74343;BME280;62767;50.300;8.070;2024-03-02T05:00:20;98605.28;;;19.09;39.42
74343;BME280;62767;50.300;8.070;2024-03-02T05:02:46;98613.38;;;19.08;39.24
74343;BME280;62767;50.300;8.070;2024-03-02T05:05:12;98617.66;;;19.09;39.33
74343;BME280;62767;50.300;8.070;2024-03-02T05:07:37;98614.19;;;19.08;39.14
74343;BME280;62767;50.300;8.070;2024-03-02T05:10:03;98627.75;;;19.05;39.20
74343;BME280;62767;50.300;8.070;2024-03-02T05:12:28;98615.72;;;19.03;39.20
74343;BME280;62767;50.300;8.070;2024-03-02T05:15:21;98622.16;;;19.00;39.23
74343;BME280;62767;50.300;8.070;2024-03-02T05:17:47;98626.78;;;18.98;39.28
74343;BME280;62767;50.300;8.070;2024-03-02T05:20:13;98631.41;;;18.96;39.32
74343;BME280;62767;50.300;8.070;2024-03-02T05:22:38;98634.69;;;18.98;39.25
74343;BME280;62767;50.300;8.070;2024-03-02T05:25:05;98631.41;;;18.96;39.27
74343;BME280;62767;50.300;8.070;2024-03-02T05:27:31;98626.66;;;18.91;39.20
74343;BME280;62767;50.300;8.070;2024-03-02T05:30:00;98629.28;;;18.91;39.34
74343;BME280;62767;50.300;8.070;2024-03-02T05:32:26;98628.63;;;18.89;39.38
74343;BME280;62767;50.300;8.070;2024-03-02T05:34:51;98640.19;;;18.88;39.42
74343;BME280;62767;50.300;8.070;2024-03-02T05:37:17;98651.72;;;18.87;39.54
74343;BME280;62767;50.300;8.070;2024-03-02T05:39:43;98643.81;;;18.87;39.53
74343;BME280;62767;50.300;8.070;2024-03-02T05:42:09;98637.72;;;18.87;39.49
74343;BME280;62767;50.300;8.070;2024-03-02T05:44:35;98636.06;;;18.86;39.43
74343;BME280;62767;50.300;8.070;2024-03-02T05:47:01;98633.28;;;18.87;39.32
74343;BME280;62767;50.300;8.070;2024-03-02T05:49:26;98639.38;;;18.88;39.41
74343;BME280;62767;50.300;8.070;2024-03-02T05:51:52;98636.72;;;18.88;39.44
74343;BME280;62767;50.300;8.070;2024-03-02T05:54:17;98644.44;;;18.89;39.35
74343;BME280;62767;50.300;8.070;2024-03-02T05:56:43;98647.91;;;18.90;39.36
74343;BME280;62767;50.300;8.070;2024-03-02T05:59:09;98655.50;;;18.93;39.39
74343;BME280;62767;50.300;8.070;2024-03-02T06:01:47;98649.03;;;18.96;39.38
74343;BME280;62767;50.300;8.070;2024-03-02T06:04:13;98644.59;;;18.96;39.32
74343;BME280;62767;50.300;8.070;2024-03-02T06:06:42;98654.81;;;18.99;39.07
74343;BME280;62767;50.300;8.070;2024-03-02T06:09:08;98652.78;;;19.01;39.22
74343;BME280;62767;50.300;8.070;2024-03-02T06:11:38;98647.34;;;19.03;39.26
74343;BME280;62767;50.300;8.070;2024-03-02T06:14:04;98663.00;;;19.04;39.18
74343;BME280;62767;50.300;8.070;2024-03-02T06:16:30;98655.75;;;19.06;39.27
74343;BME280;62767;50.300;8.070;2024-03-02T06:18:56;98650.50;;;19.06;39.17
74343;BME280;62767;50.300;8.070;2024-03-02T06:21:26;98649.66;;;19.06;39.12
74343;BME280;62767;50.300;8.070;2024-03-02T06:23:52;98654.28;;;19.04;39.20
74343;BME280;62767;50.300;8.070;2024-03-02T06:26:17;98649.16;;;19.02;39.18
74343;BME280;62767;50.300;8.070;2024-03-02T06:28:43;98652.63;;;19.03;39.13
74343;BME280;62767;50.300;8.070;2024-03-02T06:31:09;98657.09;;;19.02;39.18
74343;BME280;62767;50.300;8.070;2024-03-02T06:33:35;98656.63;;;18.99;39.14
74343;BME280;62767;50.300;8.070;2024-03-02T06:36:01;98661.88;;;18.99;39.16
74343;BME280;62767;50.300;8.070;2024-03-02T06:38:26;98655.13;;;18.96;39.28
74343;BME280;62767;50.300;8.070;2024-03-02T06:40:52;98672.75;;;18.96;39.28
74343;BME280;62767;50.300;8.070;2024-03-02T06:43:17;98670.50;;;18.92;39.22
74343;BME280;62767;50.300;8.070;2024-03-02T06:45:43;98670.50;;;18.92;39.21
74343;BME280;62767;50.300;8.070;2024-03-02T06:48:08;98675.91;;;18.91;39.19
74343;BME280;62767;50.300;8.070;2024-03-02T06:50:34;98675.91;;;18.91;39.23
74343;BME280;62767;50.300;8.070;2024-03-02T06:52:59;98677.28;;;18.87;39.24
74343;BME280;62767;50.300;8.070;2024-03-02T06:55:25;98678.41;;;18.84;39.37
74343;BME280;62767;50.300;8.070;2024-03-02T06:57:51;98673.97;;;18.85;39.36
74343;BME280;62767;50.300;8.070;2024-03-02T07:00:17;98689.78;;;18.85;39.29
74343;BME280;62767;50.300;8.070;2024-03-02T07:02:46;98689.94;;;18.83;39.27
74343;BME280;62767;50.300;8.070;2024-03-02T07:05:12;98688.97;;;18.84;39.53
74343;BME280;62767;50.300;8.070;2024-03-02T07:07:37;98697.38;;;18.88;39.33
74343;BME280;62767;50.300;8.070;2024-03-02T07:10:04;98690.44;;;18.87;39.32
74343;BME280;62767;50.300;8.070;2024-03-02T07:12:30;98691.28;;;18.87;39.23
74343;BME280;62767;50.300;8.070;2024-03-02T07:14:56;98686.63;;;18.89;39.27
74343;BME280;62767;50.300;8.070;2024-03-02T07:17:42;98674.13;;;18.91;39.39
74343;BME280;62767;50.300;8.070;2024-03-02T07:20:08;98677.41;;;18.93;39.20
74343;BME280;62767;50.300;8.070;2024-03-02T07:22:33;98681.50;;;18.96;39.30
74343;BME280;62767;50.300;8.070;2024-03-02T07:24:59;98684.78;;;18.98;39.25
74343;BME280;62767;50.300;8.070;2024-03-02T07:27:24;98690.72;;;19.00;39.26
74343;BME280;62767;50.300;8.070;2024-03-02T07:29:50;98692.19;;;19.03;39.18
74343;BME280;62767;50.300;8.070;2024-03-02T07:32:15;98697.28;;;19.04;39.17
74343;BME280;62767;50.300;8.070;2024-03-02T07:34:41;98688.56;;;19.04;38.96
74343;BME280;62767;50.300;8.070;2024-03-02T07:37:06;98692.19;;;19.03;39.13
74343;BME280;62767;50.300;8.070;2024-03-02T07:39:32;98691.19;;;19.04;39.03
74343;BME280;62767;50.300;8.070;2024-03-02T07:41:57;98700.25;;;19.01;39.12
74343;BME280;62767;50.300;8.070;2024-03-02T07:44:23;98706.34;;;19.02;39.04
74343;BME280;62767;50.300;8.070;2024-03-02T07:46:48;98710.81;;;19.01;39.13
74343;BME280;62767;50.300;8.070;2024-03-02T07:49:17;98703.91;;;19.00;39.07
74343;BME280;62767;50.300;8.070;2024-03-02T07:51:43;98709.34;;;18.99;39.14
74343;BME280;62767;50.300;8.070;2024-03-02T07:54:09;98708.53;;;18.98;39.22
74343;BME280;62767;50.300;8.070;2024-03-02T07:56:35;98713.97;;;18.97;39.06
74343;BME280;62767;50.300;8.070;2024-03-02T07:59:01;98723.88;;;18.95;39.01
74343;BME280;62767;50.300;8.070;2024-03-02T08:01:31;98724.03;;;18.93;39.08
74343;BME280;62767;50.300;8.070;2024-03-02T08:03:57;98725.03;;;18.92;38.94
74343;BME280;62767;50.300;8.070;2024-03-02T08:06:27;98732.47;;;18.88;39.28
74343;BME280;62767;50.300;8.070;2024-03-02T08:08:59;98715.31;;;18.84;39.24
74343;BME280;62767;50.300;8.070;2024-03-02T08:11:25;98725.72;;;18.86;39.34
74343;BME280;62767;50.300;8.070;2024-03-02T08:13:52;98723.91;;;18.86;39.29
74343;BME280;62767;50.300;8.070;2024-03-02T08:16:21;98723.22;;;18.84;39.26
74343;BME280;62767;50.300;8.070;2024-03-02T08:18:48;98718.78;;;18.85;39.37
74343;BME280;62767;50.300;8.070;2024-03-02T08:21:14;98722.25;;;18.85;39.21
74343;BME280;62767;50.300;8.070;2024-03-02T08:23:40;98722.09;;;18.87;39.35
74343;BME280;62767;50.300;8.070;2024-03-02T08:26:07;98725.34;;;18.89;39.28
74343;BME280;62767;50.300;8.070;2024-03-02T08:28:33;98718.94;;;18.91;39.33
74343;BME280;62767;50.300;8.070;2024-03-02T08:30:59;98720.56;;;18.92;39.24
74343;BME280;62767;50.300;8.070;2024-03-02T08:33:24;98723.69;;;18.96;39.18
74343;BME280;62767;50.300;8.070;2024-03-02T08:35:50;98724.19;;;19.00;39.24
74343;BME280;62767;50.300;8.070;2024-03-02T08:38:16;98716.09;;;19.01;39.20
74343;BME280;62767;50.300;8.070;2024-03-02T08:40:41;98716.91;;;19.02;39.19
74343;BME280;62767;50.300;8.070;2024-03-02T08:43:07;98720.03;;;19.05;39.17
74343;BME280;62767;50.300;8.070;2024-03-02T08:45:32;98712.28;;;19.04;39.09
74343;BME280;62767;50.300;8.070;2024-03-02T08:48:00;98721.84;;;19.05;39.17
74343;BME280;62767;50.300;8.070;2024-03-02T08:50:25;98721.03;;;19.04;39.08
74343;BME280;62767;50.300;8.070;2024-03-02T08:52:51;98722.03;;;19.03;39.08
74343;BME280;62767;50.300;8.070;2024-03-02T08:55:16;98718.72;;;19.01;39.21
74343;BME280;62767;50.300;8.070;2024-03-02T08:57:42;98720.38;;;19.02;39.01
74343;BME280;62767;50.300;8.070;2024-03-02T09:00:08;98729.09;;;19.03;39.09
74343;BME280;62767;50.300;8.070;2024-03-02T09:02:34;98721.56;;;19.00;39.11
74343;BME280;62767;50.300;8.070;2024-03-02T09:05:00;98725.34;;;18.97;39.27
74343;BME280;62767;50.300;8.070;2024-03-02T09:07:25;98726.00;;;18.99;39.03
74343;BME280;62767;50.300;8.070;2024-03-02T09:09:50;98723.16;;;19.01;38.99
74343;BME280;62767;50.300;8.070;2024-03-02T09:12:17;98728.44;;;19.01;39.05
74343;BME280;62767;50.300;8.070;2024-03-02T09:14:44;98720.22;;;18.96;39.03
74343;BME280;62767;50.300;8.070;2024-03-02T09:17:10;98718.94;;;18.91;39.30
74343;BME280;62767;50.300;8.070;2024-03-02T09:19:37;98715.81;;;18.88;39.28
74343;BME280;62767;50.300;8.070;2024-03-02T09:22:03;98711.53;;;18.87;39.26
74343;BME280;62767;50.300;8.070;2024-03-02T09:24:34;98716.97;;;18.85;39.36
74343;BME280;62767;50.300;8.070;2024-03-02T09:26:59;98714.34;;;18.85;39.37
74343;BME280;62767;50.300;8.070;2024-03-02T09:29:25;98721.41;;;18.85;39.35
74343;BME280;62767;50.300;8.070;2024-03-02T09:31:50;98714.34;;;18.85;39.44
74343;BME280;62767;50.300;8.070;2024-03-02T09:34:16;98715.16;;;18.86;39.33
74343;BME280;62767;50.300;8.070;2024-03-02T09:36:42;98711.53;;;18.87;39.38
74343;BME280;62767;50.300;8.070;2024-03-02T09:39:08;98701.63;;;18.89;39.36
74343;BME280;62767;50.300;8.070;2024-03-02T09:41:37;98703.94;;;18.92;39.33
74343;BME280;62767;50.300;8.070;2024-03-02T09:44:04;98697.50;;;18.95;39.34
74343;BME280;62767;50.300;8.070;2024-03-02T09:46:30;98705.88;;;18.98;39.29
74343;BME280;62767;50.300;8.070;2024-03-02T09:48:55;98697.81;;;19.00;39.29
74343;BME280;62767;50.300;8.070;2024-03-02T09:51:21;98695.66;;;19.03;39.11
74343;BME280;62767;50.300;8.070;2024-03-02T09:53:47;98688.41;;;19.05;39.18
74343;BME280;62767;50.300;8.070;2024-03-02T09:56:13;98696.13;;;19.07;39.19
74343;BME280;62767;50.300;8.070;2024-03-02T09:58:38;98702.88;;;19.09;39.16
74343;BME280;62767;50.300;8.070;2024-03-02T10:01:07;98694.13;;;19.09;39.14
74343;BME280;62767;50.300;8.070;2024-03-02T10:03:33;98698.41;;;19.10;39.07
74343;BME280;62767;50.300;8.070;2024-03-02T10:06:21;98690.50;;;19.10;39.10
74343;BME280;62767;50.300;8.070;2024-03-02T10:08:47;98695.94;;;19.08;38.99
74343;BME280;62767;50.300;8.070;2024-03-02T10:11:32;98694.97;;;19.09;39.16
74343;BME280;62767;50.300;8.070;2024-03-02T10:14:12;98690.50;;;19.10;39.37
74343;BME280;62767;50.300;8.070;2024-03-02T10:16:39;98690.16;;;19.13;39.81
74343;BME280;62767;50.300;8.070;2024-03-02T10:19:21;98684.84;;;19.21;39.77
74343;BME280;62767;50.300;8.070;2024-03-02T10:21:48;98683.16;;;19.28;39.58
74343;BME280;62767;50.300;8.070;2024-03-02T10:24:15;98690.25;;;19.27;38.77
74343;BME280;62767;50.300;8.070;2024-03-02T10:26:41;98682.16;;;18.98;38.84
74343;BME280;62767;50.300;8.070;2024-03-02T10:29:10;98686.13;;;18.94;39.36
74343;BME280;62767;50.300;8.070;2024-03-02T10:31:41;98674.31;;;19.13;39.43
74343;BME280;62767;50.300;8.070;2024-03-02T10:34:08;98678.88;;;19.27;39.63
74343;BME280;62767;50.300;8.070;2024-03-02T10:36:35;98683.38;;;19.41;39.66
74343;BME280;62767;50.300;8.070;2024-03-02T10:39:04;98675.31;;;19.51;39.63
74343;BME280;62767;50.300;8.070;2024-03-02T10:41:38;98677.88;;;19.59;39.31
74343;BME280;62767;50.300;8.070;2024-03-02T10:44:05;98676.34;;;19.64;39.04
74343;BME280;62767;50.300;8.070;2024-03-02T10:46:33;98675.47;;;19.72;38.84
74343;BME280;62767;50.300;8.070;2024-03-02T10:49:00;98664.47;;;19.83;38.87
74343;BME280;62767;50.300;8.070;2024-03-02T10:51:26;98663.44;;;19.92;38.72
74343;BME280;62767;50.300;8.070;2024-03-02T10:53:54;98660.69;;;20.00;38.90
74343;BME280;62767;50.300;8.070;2024-03-02T10:56:28;98660.44;;;20.10;38.84
74343;BME280;62767;50.300;8.070;2024-03-02T10:59:01;98654.44;;;20.16;38.88
74343;BME280;62767;50.300;8.070;2024-03-02T11:01:29;98653.53;;;20.24;38.89
74343;BME280;62767;50.300;8.070;2024-03-02T11:03:56;98654.31;;;20.32;38.79
74343;BME280;62767;50.300;8.070;2024-03-02T11:06:22;98657.03;;;20.39;38.62
74343;BME280;62767;50.300;8.070;2024-03-02T11:08:49;98658.16;;;20.44;38.68
74343;BME280;62767;50.300;8.070;2024-03-02T11:11:22;98656.78;;;20.48;38.57
74343;BME280;62767;50.300;8.070;2024-03-02T11:13:54;98658.44;;;20.49;38.77
74343;BME280;62767;50.300;8.070;2024-03-02T11:16:42;98653.97;;;20.50;38.75
74343;BME280;62767;50.300;8.070;2024-03-02T11:19:11;98661.91;;;20.50;38.83
74343;BME280;62767;50.300;8.070;2024-03-02T11:21:37;98657.78;;;20.47;39.06
74343;BME280;62767;50.300;8.070;2024-03-02T11:26:47;98661.09;;;20.49;39.12
74343;BME280;62767;50.300;8.070;2024-03-02T11:32:18;98644.19;;;20.50;39.03
74343;BME280;62767;50.300;8.070;2024-03-02T11:34:48;98643.56;;;20.48;39.46
74343;BME280;62767;50.300;8.070;2024-03-02T11:37:16;98635.66;;;20.48;38.67
74343;BME280;62767;50.300;8.070;2024-03-02T11:39:43;98638.63;;;20.45;39.21
74343;BME280;62767;50.300;8.070;2024-03-02T11:42:11;98650.75;;;20.40;39.11
74343;BME280;62767;50.300;8.070;2024-03-02T11:44:37;98648.66;;;20.35;39.05
74343;BME280;62767;50.300;8.070;2024-03-02T11:47:07;98642.56;;;20.35;39.13
74343;BME280;62767;50.300;8.070;2024-03-02T11:49:37;98645.38;;;20.33;39.04
74343;BME280;62767;50.300;8.070;2024-03-02T11:52:06;98643.38;;;20.35;38.78
74343;BME280;62767;50.300;8.070;2024-03-02T11:54:33;98640.91;;;20.34;38.92
74343;BME280;62767;50.300;8.070;2024-03-02T11:57:05;98639.56;;;20.38;38.83
74343;BME280;62767;50.300;8.070;2024-03-02T11:59:31;98646.13;;;20.42;38.70
74343;BME280;62767;50.300;8.070;2024-03-02T12:01:58;98636.19;;;20.44;38.76
74343;BME280;62767;50.300;8.070;2024-03-02T12:04:23;98632.19;;;20.48;38.64
74343;BME280;62767;50.300;8.070;2024-03-02T12:06:56;98626.34;;;20.52;38.46
74343;BME280;62767;50.300;8.070;2024-03-02T12:09:27;98623.13;;;20.57;38.48
74343;BME280;62767;50.300;8.070;2024-03-02T12:12:06;98619.75;;;20.63;38.48
74343;BME280;62767;50.300;8.070;2024-03-02T12:14:33;98605.66;;;20.27;39.99
74343;BME280;62767;50.300;8.070;2024-03-02T12:16:58;98616.63;;;20.01;40.75
74343;BME280;62767;50.300;8.070;2024-03-02T12:19:25;98616.13;;;19.83;41.16
74343;BME280;62767;50.300;8.070;2024-03-02T12:21:52;98616.56;;;19.71;41.49
74343;BME280;62767;50.300;8.070;2024-03-02T12:24:18;98614.06;;;19.55;41.52
74343;BME280;62767;50.300;8.070;2024-03-02T12:26:44;98620.41;;;19.46;41.53
74343;BME280;62767;50.300;8.070;2024-03-02T12:29:10;98613.69;;;19.35;41.68
74343;BME280;62767;50.300;8.070;2024-03-02T12:31:35;98602.72;;;19.24;41.60
74343;BME280;62767;50.300;8.070;2024-03-02T12:34:03;98609.72;;;19.17;41.50
74343;BME280;62767;50.300;8.070;2024-03-02T12:36:29;98600.69;;;19.11;41.44
74343;BME280;62767;50.300;8.070;2024-03-02T12:38:54;98599.66;;;19.12;41.10
74343;BME280;62767;50.300;8.070;2024-03-02T12:41:20;98595.13;;;19.06;41.28
74343;BME280;62767;50.300;8.070;2024-03-02T12:43:46;98590.00;;;19.05;41.14
74343;BME280;62767;50.300;8.070;2024-03-02T12:46:12;98592.84;;;18.95;40.98
74343;BME280;62767;50.300;8.070;2024-03-02T12:48:37;98592.84;;;18.95;40.89
74343;BME280;62767;50.300;8.070;2024-03-02T12:51:06;98594.06;;;18.84;41.17
74343;BME280;62767;50.300;8.070;2024-03-02T12:53:32;98588.50;;;18.79;40.78
74343;BME280;62767;50.300;8.070;2024-03-02T12:55:57;98579.75;;;18.79;40.82
74343;BME280;62767;50.300;8.070;2024-03-02T12:58:23;98580.94;;;18.76;40.88
74343;BME280;62767;50.300;8.070;2024-03-02T13:00:49;98580.13;;;18.76;40.72
74343;BME280;62767;50.300;8.070;2024-03-02T13:03:14;98585.56;;;18.74;40.08
74343;BME280;62767;50.300;8.070;2024-03-02T13:05:48;98579.31;;;18.67;39.86